sensor_id;sensor_type;location;lat;lon;timestamp;P1;durP1;ratioP1;P2;durP2;ratioP2
43744;SDS011;29359;53.048;8.732;2023-03-01T00:00:51;17.23;;;10.32;;
43744;SDS011;29359;53.048;8.732;2023-03-01T00:02:53;20.98;;;10.50;;
43744;SDS011;29359;53.048;8.732;2023-03-01T00:04:54;20.30;;;11.38;;
43744;SDS011;29359;53.048;8.732;2023-03-01T00:06:56;16.05;;;10.52;;
43744;SDS011;29359;53.048;8.732;2023-03-01T00:08:58;19.15;;;10.52;;
43744;SDS011;29359;53.048;8.732;2023-03-01T00:11:04;17.35;;;10.05;;
43744;SDS011;29359;53.048;8.732;2023-03-01T00:13:06;22.95;;;9.82;;
43744;SDS011;29359;53.048;8.732;2023-03-01T00:15:07;16.50;;;9.98;;
43744;SDS011;29359;53.048;8.732;2023-03-01T00:17:09;18.05;;;10.07;;
43744;SDS011;29359;53.048;8.732;2023-03-01T00:19:12;18.67;;;9.55;;
43744;SDS011;29359;53.048;8.732;2023-03-01T00:21:15;14.82;;;9.35;;
43744;SDS011;29359;53.048;8.732;2023-03-01T00:23:18;17.77;;;10.52;;
43744;SDS011;29359;53.048;8.732;2023-03-01T00:25:20;14.77;;;9.68;;
43744;SDS011;29359;53.048;8.732;2023-03-01T00:27:21;16.60;;;9.95;;
43744;SDS011;29359;53.048;8.732;2023-03-01T00:29:26;15.40;;;9.32;;
43744;SDS011;29359;53.048;8.732;2023-03-01T00:31:28;16.35;;;9.63;;
43744;SDS011;29359;53.048;8.732;2023-03-01T00:33:32;16.98;;;9.68;;
43744;SDS011;29359;53.048;8.732;2023-03-01T00:35:34;14.63;;;9.40;;
43744;SDS011;29359;53.048;8.732;2023-03-01T00:37:36;19.17;;;10.10;;
43744;SDS011;29359;53.048;8.732;2023-03-01T00:39:38;19.75;;;9.85;;
43744;SDS011;29359;53.048;8.732;2023-03-01T00:41:39;17.92;;;9.65;;
43744;SDS011;29359;53.048;8.732;2023-03-01T00:43:43;15.95;;;9.88;;
43744;SDS011;29359;53.048;8.732;2023-03-01T00:45:48;20.25;;;9.45;;
43744;SDS011;29359;53.048;8.732;2023-03-01T00:47:50;19.25;;;9.85;;
43744;SDS011;29359;53.048;8.732;2023-03-01T00:49:52;20.70;;;9.88;;
43744;SDS011;29359;53.048;8.732;2023-03-01T00:51:54;19.90;;;10.55;;
43744;SDS011;29359;53.048;8.732;2023-03-01T00:53:57;21.33;;;10.32;;
43744;SDS011;29359;53.048;8.732;2023-03-01T00:56:01;18.52;;;10.20;;
43744;SDS011;29359;53.048;8.732;2023-03-01T00:58:03;18.23;;;10.30;;
43744;SDS011;29359;53.048;8.732;2023-03-01T01:00:06;18.20;;;9.93;;
43744;SDS011;29359;53.048;8.732;2023-03-01T01:02:11;16.83;;;10.00;;
43744;SDS011;29359;53.048;8.732;2023-03-01T01:04:13;18.65;;;9.43;;
43744;SDS011;29359;53.048;8.732;2023-03-01T01:06:16;17.50;;;9.38;;
43744;SDS011;29359;53.048;8.732;2023-03-01T01:08:19;21.95;;;10.43;;
43744;SDS011;29359;53.048;8.732;2023-03-01T01:10:22;21.70;;;11.55;;
43744;SDS011;29359;53.048;8.732;2023-03-01T01:12:24;18.42;;;11.00;;
43744;SDS011;29359;53.048;8.732;2023-03-01T01:14:26;22.15;;;11.55;;
43744;SDS011;29359;53.048;8.732;2023-03-01T01:16:28;23.85;;;11.10;;
43744;SDS011;29359;53.048;8.732;2023-03-01T01:18:30;17.90;;;10.05;;
43744;SDS011;29359;53.048;8.732;2023-03-01T01:20:32;18.98;;;9.80;;
43744;SDS011;29359;53.048;8.732;2023-03-01T01:22:34;19.50;;;10.23;;
43744;SDS011;29359;53.048;8.732;2023-03-01T01:24:35;15.32;;;9.23;;
43744;SDS011;29359;53.048;8.732;2023-03-01T01:26:37;17.55;;;9.50;;
43744;SDS011;29359;53.048;8.732;2023-03-01T01:28:39;14.25;;;8.82;;
43744;SDS011;29359;53.048;8.732;2023-03-01T01:30:42;15.65;;;8.80;;
43744;SDS011;29359;53.048;8.732;2023-03-01T01:32:43;15.20;;;9.07;;
43744;SDS011;29359;53.048;8.732;2023-03-01T01:34:46;14.90;;;9.43;;
43744;SDS011;29359;53.048;8.732;2023-03-01T01:36:49;16.33;;;9.77;;
43744;SDS011;29359;53.048;8.732;2023-03-01T01:38:52;16.08;;;9.55;;
43744;SDS011;29359;53.048;8.732;2023-03-01T01:40:54;16.05;;;10.02;;
43744;SDS011;29359;53.048;8.732;2023-03-01T01:42:56;17.75;;;10.13;;
43744;SDS011;29359;53.048;8.732;2023-03-01T01:47:30;12.45;;;8.88;;
43744;SDS011;29359;53.048;8.732;2023-03-01T01:49:37;18.23;;;9.52;;
43744;SDS011;29359;53.048;8.732;2023-03-01T01:51:43;11.40;;;8.65;;
43744;SDS011;29359;53.048;8.732;2023-03-01T01:53:51;15.52;;;9.73;;
43744;SDS011;29359;53.048;8.732;2023-03-01T01:55:57;14.38;;;8.90;;
43744;SDS011;29359;53.048;8.732;2023-03-01T01:58:02;19.13;;;9.10;;
43744;SDS011;29359;53.048;8.732;2023-03-01T02:00:17;14.10;;;8.40;;
43744;SDS011;29359;53.048;8.732;2023-03-01T02:02:20;17.02;;;9.00;;
43744;SDS011;29359;53.048;8.732;2023-03-01T02:04:22;17.58;;;8.63;;
43744;SDS011;29359;53.048;8.732;2023-03-01T02:06:31;13.65;;;9.38;;
43744;SDS011;29359;53.048;8.732;2023-03-01T02:08:37;15.05;;;9.02;;
43744;SDS011;29359;53.048;8.732;2023-03-01T02:10:42;16.88;;;10.07;;
43744;SDS011;29359;53.048;8.732;2023-03-01T02:12:45;15.85;;;9.02;;
43744;SDS011;29359;53.048;8.732;2023-03-01T02:14:47;15.98;;;9.10;;
43744;SDS011;29359;53.048;8.732;2023-03-01T02:16:48;18.30;;;8.88;;
43744;SDS011;29359;53.048;8.732;2023-03-01T02:18:50;18.00;;;9.15;;
43744;SDS011;29359;53.048;8.732;2023-03-01T02:23:02;12.75;;;8.90;;
43744;SDS011;29359;53.048;8.732;2023-03-01T02:27:20;15.98;;;9.10;;
43744;SDS011;29359;53.048;8.732;2023-03-01T02:29:27;14.40;;;9.48;;
43744;SDS011;29359;53.048;8.732;2023-03-01T02:31:30;14.00;;;9.02;;
43744;SDS011;29359;53.048;8.732;2023-03-01T02:33:43;19.17;;;9.40;;
43744;SDS011;29359;53.048;8.732;2023-03-01T02:35:46;17.27;;;9.20;;
43744;SDS011;29359;53.048;8.732;2023-03-01T02:37:48;14.40;;;8.25;;
43744;SDS011;29359;53.048;8.732;2023-03-01T02:39:53;13.43;;;8.73;;
43744;SDS011;29359;53.048;8.732;2023-03-01T02:41:59;15.02;;;9.93;;
43744;SDS011;29359;53.048;8.732;2023-03-01T02:44:04;14.32;;;8.63;;
43744;SDS011;29359;53.048;8.732;2023-03-01T02:46:07;14.98;;;8.90;;
43744;SDS011;29359;53.048;8.732;2023-03-01T02:52:44;16.35;;;8.82;;
43744;SDS011;29359;53.048;8.732;2023-03-01T02:54:50;14.30;;;8.57;;
43744;SDS011;29359;53.048;8.732;2023-03-01T02:56:59;15.45;;;9.13;;
43744;SDS011;29359;53.048;8.732;2023-03-01T02:59:02;14.10;;;8.95;;
43744;SDS011;29359;53.048;8.732;2023-03-01T03:01:04;14.07;;;9.18;;
43744;SDS011;29359;53.048;8.732;2023-03-01T03:03:06;12.25;;;8.65;;
43744;SDS011;29359;53.048;8.732;2023-03-01T03:05:09;20.33;;;8.90;;
43744;SDS011;29359;53.048;8.732;2023-03-01T03:07:21;12.27;;;8.80;;
43744;SDS011;29359;53.048;8.732;2023-03-01T03:09:23;15.07;;;8.98;;
43744;SDS011;29359;53.048;8.732;2023-03-01T03:11:25;12.07;;;7.82;;
43744;SDS011;29359;53.048;8.732;2023-03-01T03:13:27;15.65;;;9.32;;
43744;SDS011;29359;53.048;8.732;2023-03-01T03:15:29;12.75;;;8.57;;
43744;SDS011;29359;53.048;8.732;2023-03-01T03:17:31;13.75;;;8.95;;
43744;SDS011;29359;53.048;8.732;2023-03-01T03:19:33;12.70;;;8.40;;
43744;SDS011;29359;53.048;8.732;2023-03-01T03:21:34;11.25;;;8.05;;
43744;SDS011;29359;53.048;8.732;2023-03-01T03:23:36;12.00;;;8.25;;
43744;SDS011;29359;53.048;8.732;2023-03-01T03:25:38;15.00;;;8.50;;
43744;SDS011;29359;53.048;8.732;2023-03-01T03:27:41;11.70;;;8.35;;
43744;SDS011;29359;53.048;8.732;2023-03-01T03:29:45;11.98;;;8.38;;
43744;SDS011;29359;53.048;8.732;2023-03-01T03:31:46;13.73;;;7.95;;
43744;SDS011;29359;53.048;8.732;2023-03-01T03:33:48;13.60;;;8.60;;
43744;SDS011;29359;53.048;8.732;2023-03-01T03:35:50;15.45;;;7.85;;
43744;SDS011;29359;53.048;8.732;2023-03-01T03:37:52;13.85;;;8.02;;
43744;SDS011;29359;53.048;8.732;2023-03-01T03:40:02;14.88;;;7.50;;
43744;SDS011;29359;53.048;8.732;2023-03-01T03:42:04;14.85;;;7.45;;
43744;SDS011;29359;53.048;8.732;2023-03-01T03:44:06;11.57;;;7.43;;
43744;SDS011;29359;53.048;8.732;2023-03-01T03:46:08;10.40;;;6.75;;
43744;SDS011;29359;53.048;8.732;2023-03-01T03:48:10;11.90;;;6.93;;
43744;SDS011;29359;53.048;8.732;2023-03-01T03:50:13;11.98;;;7.47;;
43744;SDS011;29359;53.048;8.732;2023-03-01T03:52:15;12.43;;;6.97;;
43744;SDS011;29359;53.048;8.732;2023-03-01T03:54:17;11.00;;;7.22;;
43744;SDS011;29359;53.048;8.732;2023-03-01T03:56:18;11.00;;;6.93;;
43744;SDS011;29359;53.048;8.732;2023-03-01T03:58:21;18.05;;;7.35;;
43744;SDS011;29359;53.048;8.732;2023-03-01T04:00:24;13.20;;;7.22;;
43744;SDS011;29359;53.048;8.732;2023-03-01T04:02:25;11.23;;;7.15;;
43744;SDS011;29359;53.048;8.732;2023-03-01T04:04:27;9.20;;;6.93;;
43744;SDS011;29359;53.048;8.732;2023-03-01T04:06:28;13.93;;;7.50;;
43744;SDS011;29359;53.048;8.732;2023-03-01T04:08:30;9.10;;;6.80;;
43744;SDS011;29359;53.048;8.732;2023-03-01T04:10:37;11.02;;;7.25;;
43744;SDS011;29359;53.048;8.732;2023-03-01T04:12:39;10.23;;;7.57;;
43744;SDS011;29359;53.048;8.732;2023-03-01T04:14:41;9.52;;;6.93;;
43744;SDS011;29359;53.048;8.732;2023-03-01T04:16:42;13.02;;;6.90;;
43744;SDS011;29359;53.048;8.732;2023-03-01T04:18:44;11.18;;;6.85;;
43744;SDS011;29359;53.048;8.732;2023-03-01T04:20:46;13.57;;;6.75;;
43744;SDS011;29359;53.048;8.732;2023-03-01T04:22:48;10.27;;;7.10;;
43744;SDS011;29359;53.048;8.732;2023-03-01T04:24:49;11.55;;;7.35;;
43744;SDS011;29359;53.048;8.732;2023-03-01T04:26:51;15.32;;;6.28;;
43744;SDS011;29359;53.048;8.732;2023-03-01T04:28:52;12.90;;;7.03;;
43744;SDS011;29359;53.048;8.732;2023-03-01T04:30:54;13.65;;;7.80;;
43744;SDS011;29359;53.048;8.732;2023-03-01T04:32:58;17.67;;;8.55;;
43744;SDS011;29359;53.048;8.732;2023-03-01T04:35:00;15.93;;;8.90;;
43744;SDS011;29359;53.048;8.732;2023-03-01T04:37:01;11.52;;;7.88;;
43744;SDS011;29359;53.048;8.732;2023-03-01T04:39:03;10.98;;;7.00;;
43744;SDS011;29359;53.048;8.732;2023-03-01T04:41:13;12.07;;;7.15;;
43744;SDS011;29359;53.048;8.732;2023-03-01T04:43:16;13.23;;;7.60;;
43744;SDS011;29359;53.048;8.732;2023-03-01T04:45:18;13.38;;;7.40;;
43744;SDS011;29359;53.048;8.732;2023-03-01T04:47:20;13.00;;;7.55;;
43744;SDS011;29359;53.048;8.732;2023-03-01T04:49:21;12.82;;;7.47;;
43744;SDS011;29359;53.048;8.732;2023-03-01T04:51:23;11.25;;;7.55;;
43744;SDS011;29359;53.048;8.732;2023-03-01T04:53:25;12.00;;;7.43;;
43744;SDS011;29359;53.048;8.732;2023-03-01T04:55:27;16.20;;;8.40;;
43744;SDS011;29359;53.048;8.732;2023-03-01T04:57:29;15.00;;;8.25;;
43744;SDS011;29359;53.048;8.732;2023-03-01T04:59:31;15.52;;;8.02;;
43744;SDS011;29359;53.048;8.732;2023-03-01T05:01:33;12.10;;;7.88;;
43744;SDS011;29359;53.048;8.732;2023-03-01T05:03:36;16.88;;;8.68;;
43744;SDS011;29359;53.048;8.732;2023-03-01T05:05:38;12.65;;;7.57;;
43744;SDS011;29359;53.048;8.732;2023-03-01T05:07:40;12.05;;;7.60;;
43744;SDS011;29359;53.048;8.732;2023-03-01T05:09:41;12.52;;;8.05;;
43744;SDS011;29359;53.048;8.732;2023-03-01T05:11:43;14.82;;;8.20;;
43744;SDS011;29359;53.048;8.732;2023-03-01T05:13:44;17.48;;;9.32;;
43744;SDS011;29359;53.048;8.732;2023-03-01T05:15:46;20.27;;;9.23;;
43744;SDS011;29359;53.048;8.732;2023-03-01T05:17:50;14.77;;;9.35;;
43744;SDS011;29359;53.048;8.732;2023-03-01T05:19:51;18.85;;;8.57;;
43744;SDS011;29359;53.048;8.732;2023-03-01T05:21:53;15.05;;;8.43;;
43744;SDS011;29359;53.048;8.732;2023-03-01T05:24:05;12.02;;;8.40;;
43744;SDS011;29359;53.048;8.732;2023-03-01T05:26:12;11.20;;;7.53;;
43744;SDS011;29359;53.048;8.732;2023-03-01T05:28:35;11.75;;;7.88;;
43744;SDS011;29359;53.048;8.732;2023-03-01T05:30:36;10.27;;;6.95;;
43744;SDS011;29359;53.048;8.732;2023-03-01T05:32:40;10.55;;;7.25;;
43744;SDS011;29359;53.048;8.732;2023-03-01T05:34:46;13.30;;;7.65;;
43744;SDS011;29359;53.048;8.732;2023-03-01T05:36:48;9.90;;;7.35;;
43744;SDS011;29359;53.048;8.732;2023-03-01T05:38:54;12.35;;;7.03;;
43744;SDS011;29359;53.048;8.732;2023-03-01T05:40:55;9.80;;;6.20;;
43744;SDS011;29359;53.048;8.732;2023-03-01T05:42:57;13.77;;;7.25;;
43744;SDS011;29359;53.048;8.732;2023-03-01T05:44:58;12.05;;;7.20;;
43744;SDS011;29359;53.048;8.732;2023-03-01T05:47:00;10.45;;;6.82;;
43744;SDS011;29359;53.048;8.732;2023-03-01T05:49:01;15.80;;;7.18;;
43744;SDS011;29359;53.048;8.732;2023-03-01T05:51:03;11.00;;;7.35;;
43744;SDS011;29359;53.048;8.732;2023-03-01T05:53:06;11.18;;;6.85;;
43744;SDS011;29359;53.048;8.732;2023-03-01T05:55:10;10.32;;;6.70;;
43744;SDS011;29359;53.048;8.732;2023-03-01T05:57:11;14.45;;;7.68;;
43744;SDS011;29359;53.048;8.732;2023-03-01T05:59:13;14.50;;;7.63;;
43744;SDS011;29359;53.048;8.732;2023-03-01T06:01:16;12.45;;;6.90;;
43744;SDS011;29359;53.048;8.732;2023-03-01T06:03:17;9.50;;;7.18;;
43744;SDS011;29359;53.048;8.732;2023-03-01T06:05:19;13.10;;;7.68;;
43744;SDS011;29359;53.048;8.732;2023-03-01T06:07:20;12.00;;;6.93;;
43744;SDS011;29359;53.048;8.732;2023-03-01T06:09:22;13.43;;;6.60;;
43744;SDS011;29359;53.048;8.732;2023-03-01T06:11:35;11.25;;;7.38;;
43744;SDS011;29359;53.048;8.732;2023-03-01T06:13:37;12.45;;;7.57;;
43744;SDS011;29359;53.048;8.732;2023-03-01T06:15:39;10.90;;;7.22;;
43744;SDS011;29359;53.048;8.732;2023-03-01T06:17:41;10.43;;;7.10;;
43744;SDS011;29359;53.048;8.732;2023-03-01T06:19:44;14.45;;;7.22;;
43744;SDS011;29359;53.048;8.732;2023-03-01T06:21:45;12.05;;;7.03;;
43744;SDS011;29359;53.048;8.732;2023-03-01T06:23:50;9.30;;;6.32;;
43744;SDS011;29359;53.048;8.732;2023-03-01T06:25:52;13.23;;;7.65;;
43744;SDS011;29359;53.048;8.732;2023-03-01T06:27:55;10.48;;;6.75;;
43744;SDS011;29359;53.048;8.732;2023-03-01T06:29:57;9.73;;;6.93;;
43744;SDS011;29359;53.048;8.732;2023-03-01T06:31:58;11.52;;;6.65;;
43744;SDS011;29359;53.048;8.732;2023-03-01T06:34:00;11.50;;;7.25;;
43744;SDS011;29359;53.048;8.732;2023-03-01T06:36:03;18.17;;;8.00;;
43744;SDS011;29359;53.048;8.732;2023-03-01T06:38:05;9.48;;;7.13;;
43744;SDS011;29359;53.048;8.732;2023-03-01T06:40:07;16.83;;;7.90;;
43744;SDS011;29359;53.048;8.732;2023-03-01T06:42:10;12.93;;;7.90;;
43744;SDS011;29359;53.048;8.732;2023-03-01T06:44:12;16.08;;;8.25;;
43744;SDS011;29359;53.048;8.732;2023-03-01T06:46:13;17.25;;;9.13;;
43744;SDS011;29359;53.048;8.732;2023-03-01T06:48:15;16.58;;;8.13;;
43744;SDS011;29359;53.048;8.732;2023-03-01T06:50:16;17.48;;;8.43;;
43744;SDS011;29359;53.048;8.732;2023-03-01T06:52:19;17.63;;;9.07;;
43744;SDS011;29359;53.048;8.732;2023-03-01T06:54:20;14.68;;;8.18;;
43744;SDS011;29359;53.048;8.732;2023-03-01T06:56:23;16.83;;;9.13;;
43744;SDS011;29359;53.048;8.732;2023-03-01T06:58:25;13.13;;;8.60;;
43744;SDS011;29359;53.048;8.732;2023-03-01T07:00:26;13.13;;;7.45;;
43744;SDS011;29359;53.048;8.732;2023-03-01T07:02:28;13.70;;;8.05;;
43744;SDS011;29359;53.048;8.732;2023-03-01T07:04:30;12.77;;;7.82;;
43744;SDS011;29359;53.048;8.732;2023-03-01T07:06:31;13.63;;;7.78;;
43744;SDS011;29359;53.048;8.732;2023-03-01T07:08:33;11.55;;;7.65;;
43744;SDS011;29359;53.048;8.732;2023-03-01T07:10:35;14.40;;;7.88;;
43744;SDS011;29359;53.048;8.732;2023-03-01T07:12:36;15.55;;;8.00;;
43744;SDS011;29359;53.048;8.732;2023-03-01T07:14:38;13.23;;;8.13;;
43744;SDS011;29359;53.048;8.732;2023-03-01T07:16:40;16.58;;;8.20;;
43744;SDS011;29359;53.048;8.732;2023-03-01T07:18:41;16.08;;;8.65;;
43744;SDS011;29359;53.048;8.732;2023-03-01T07:20:43;17.10;;;9.00;;
43744;SDS011;29359;53.048;8.732;2023-03-01T07:22:44;17.88;;;8.65;;
43744;SDS011;29359;53.048;8.732;2023-03-01T07:24:46;13.98;;;8.00;;
43744;SDS011;29359;53.048;8.732;2023-03-01T07:26:48;14.70;;;8.88;;
43744;SDS011;29359;53.048;8.732;2023-03-01T07:28:51;27.30;;;9.80;;
43744;SDS011;29359;53.048;8.732;2023-03-01T07:30:53;28.20;;;8.63;;
43744;SDS011;29359;53.048;8.732;2023-03-01T07:32:55;12.50;;;7.85;;
43744;SDS011;29359;53.048;8.732;2023-03-01T07:34:58;18.80;;;8.10;;
43744;SDS011;29359;53.048;8.732;2023-03-01T07:37:00;11.43;;;7.93;;
43744;SDS011;29359;53.048;8.732;2023-03-01T07:39:01;12.68;;;8.40;;
43744;SDS011;29359;53.048;8.732;2023-03-01T07:41:04;12.25;;;8.23;;
43744;SDS011;29359;53.048;8.732;2023-03-01T07:43:06;15.57;;;9.10;;
43744;SDS011;29359;53.048;8.732;2023-03-01T07:45:08;12.77;;;9.00;;
43744;SDS011;29359;53.048;8.732;2023-03-01T07:47:10;14.55;;;9.07;;
43744;SDS011;29359;53.048;8.732;2023-03-01T07:49:12;11.35;;;8.85;;
43744;SDS011;29359;53.048;8.732;2023-03-01T07:51:13;15.00;;;10.27;;
43744;SDS011;29359;53.048;8.732;2023-03-01T07:53:15;15.45;;;9.50;;
43744;SDS011;29359;53.048;8.732;2023-03-01T07:55:16;19.90;;;8.63;;
43744;SDS011;29359;53.048;8.732;2023-03-01T07:57:18;14.32;;;9.73;;
43744;SDS011;29359;53.048;8.732;2023-03-01T07:59:19;13.75;;;9.05;;
43744;SDS011;29359;53.048;8.732;2023-03-01T08:01:21;15.05;;;8.60;;
43744;SDS011;29359;53.048;8.732;2023-03-01T08:03:23;16.00;;;9.00;;
43744;SDS011;29359;53.048;8.732;2023-03-01T08:05:24;14.77;;;8.73;;
43744;SDS011;29359;53.048;8.732;2023-03-01T08:07:26;11.75;;;8.75;;
43744;SDS011;29359;53.048;8.732;2023-03-01T08:09:27;16.15;;;9.50;;
43744;SDS011;29359;53.048;8.732;2023-03-01T08:11:29;18.75;;;9.07;;
43744;SDS011;29359;53.048;8.732;2023-03-01T08:13:30;18.98;;;9.32;;
43744;SDS011;29359;53.048;8.732;2023-03-01T08:15:32;18.33;;;9.05;;
43744;SDS011;29359;53.048;8.732;2023-03-01T08:17:34;19.90;;;9.27;;
43744;SDS011;29359;53.048;8.732;2023-03-01T08:19:35;21.10;;;10.23;;
43744;SDS011;29359;53.048;8.732;2023-03-01T08:21:37;17.45;;;9.40;;
43744;SDS011;29359;53.048;8.732;2023-03-01T08:23:40;14.48;;;9.55;;
43744;SDS011;29359;53.048;8.732;2023-03-01T08:25:42;14.25;;;8.90;;
43744;SDS011;29359;53.048;8.732;2023-03-01T08:27:44;17.48;;;8.75;;
43744;SDS011;29359;53.048;8.732;2023-03-01T08:29:45;12.20;;;7.60;;
43744;SDS011;29359;53.048;8.732;2023-03-01T08:31:47;12.35;;;8.45;;
43744;SDS011;29359;53.048;8.732;2023-03-01T08:33:50;15.23;;;8.70;;
43744;SDS011;29359;53.048;8.732;2023-03-01T08:36:03;12.68;;;8.43;;
43744;SDS011;29359;53.048;8.732;2023-03-01T08:38:05;16.73;;;8.95;;
43744;SDS011;29359;53.048;8.732;2023-03-01T08:40:07;15.55;;;8.70;;
43744;SDS011;29359;53.048;8.732;2023-03-01T08:42:11;13.63;;;8.95;;
43744;SDS011;29359;53.048;8.732;2023-03-01T08:44:13;29.73;;;12.15;;
43744;SDS011;29359;53.048;8.732;2023-03-01T08:46:15;15.55;;;9.07;;
43744;SDS011;29359;53.048;8.732;2023-03-01T08:48:17;9.65;;;8.10;;
43744;SDS011;29359;53.048;8.732;2023-03-01T08:50:18;13.10;;;7.88;;
43744;SDS011;29359;53.048;8.732;2023-03-01T08:52:20;14.63;;;8.88;;
43744;SDS011;29359;53.048;8.732;2023-03-01T08:54:21;18.88;;;9.13;;
43744;SDS011;29359;53.048;8.732;2023-03-01T08:56:23;15.85;;;8.70;;
43744;SDS011;29359;53.048;8.732;2023-03-01T08:58:25;19.80;;;9.10;;
43744;SDS011;29359;53.048;8.732;2023-03-01T09:00:26;11.48;;;8.57;;
43744;SDS011;29359;53.048;8.732;2023-03-01T09:02:27;19.08;;;8.57;;
43744;SDS011;29359;53.048;8.732;2023-03-01T09:04:29;17.30;;;8.43;;
43744;SDS011;29359;53.048;8.732;2023-03-01T09:06:31;14.73;;;8.43;;
43744;SDS011;29359;53.048;8.732;2023-03-01T09:08:35;13.50;;;8.80;;
43744;SDS011;29359;53.048;8.732;2023-03-01T09:10:40;13.57;;;8.48;;
43744;SDS011;29359;53.048;8.732;2023-03-01T09:12:42;15.23;;;7.53;;
43744;SDS011;29359;53.048;8.732;2023-03-01T09:14:43;11.25;;;7.85;;
43744;SDS011;29359;53.048;8.732;2023-03-01T09:16:45;17.23;;;8.55;;
43744;SDS011;29359;53.048;8.732;2023-03-01T09:18:54;14.85;;;7.60;;
43744;SDS011;29359;53.048;8.732;2023-03-01T09:21:14;14.38;;;7.85;;
43744;SDS011;29359;53.048;8.732;2023-03-01T09:23:19;18.52;;;7.47;;
43744;SDS011;29359;53.048;8.732;2023-03-01T09:25:21;14.60;;;7.93;;
43744;SDS011;29359;53.048;8.732;2023-03-01T09:27:22;13.65;;;7.82;;
43744;SDS011;29359;53.048;8.732;2023-03-01T09:29:25;12.75;;;7.63;;
43744;SDS011;29359;53.048;8.732;2023-03-01T09:31:27;10.93;;;7.22;;
43744;SDS011;29359;53.048;8.732;2023-03-01T09:33:29;12.88;;;6.85;;
43744;SDS011;29359;53.048;8.732;2023-03-01T09:35:32;16.33;;;6.45;;
43744;SDS011;29359;53.048;8.732;2023-03-01T09:37:34;13.10;;;6.88;;
43744;SDS011;29359;53.048;8.732;2023-03-01T09:39:36;10.23;;;5.53;;
43744;SDS011;29359;53.048;8.732;2023-03-01T09:41:42;9.68;;;5.18;;
43744;SDS011;29359;53.048;8.732;2023-03-01T09:43:51;11.27;;;5.03;;
43744;SDS011;29359;53.048;8.732;2023-03-01T09:46:02;7.65;;;4.97;;
43744;SDS011;29359;53.048;8.732;2023-03-01T09:48:08;11.45;;;4.25;;
43744;SDS011;29359;53.048;8.732;2023-03-01T09:50:19;8.40;;;3.92;;
43744;SDS011;29359;53.048;8.732;2023-03-01T09:54:55;5.82;;;4.03;;
43744;SDS011;29359;53.048;8.732;2023-03-01T09:57:04;5.45;;;3.10;;
43744;SDS011;29359;53.048;8.732;2023-03-01T10:01:41;10.18;;;4.88;;
43744;SDS011;29359;53.048;8.732;2023-03-01T10:03:55;9.88;;;4.15;;
43744;SDS011;29359;53.048;8.732;2023-03-01T10:06:20;8.77;;;4.68;;
43744;SDS011;29359;53.048;8.732;2023-03-01T10:08:42;11.27;;;5.22;;
43744;SDS011;29359;53.048;8.732;2023-03-01T10:10:54;12.65;;;6.00;;
43744;SDS011;29359;53.048;8.732;2023-03-01T10:12:56;9.70;;;6.38;;
43744;SDS011;29359;53.048;8.732;2023-03-01T10:15:11;10.70;;;6.55;;
43744;SDS011;29359;53.048;8.732;2023-03-01T10:19:47;10.43;;;6.10;;
43744;SDS011;29359;53.048;8.732;2023-03-01T10:21:48;10.68;;;5.40;;
43744;SDS011;29359;53.048;8.732;2023-03-01T10:23:52;20.17;;;7.95;;
43744;SDS011;29359;53.048;8.732;2023-03-01T10:28:08;30.02;;;7.22;;
43744;SDS011;29359;53.048;8.732;2023-03-01T10:30:17;10.60;;;6.30;;
43744;SDS011;29359;53.048;8.732;2023-03-01T10:32:20;15.63;;;7.28;;
43744;SDS011;29359;53.048;8.732;2023-03-01T10:34:29;11.85;;;6.57;;
43744;SDS011;29359;53.048;8.732;2023-03-01T10:36:33;14.13;;;6.05;;
43744;SDS011;29359;53.048;8.732;2023-03-01T10:38:54;10.35;;;5.43;;
43744;SDS011;29359;53.048;8.732;2023-03-01T10:40:59;9.65;;;5.57;;
43744;SDS011;29359;53.048;8.732;2023-03-01T10:43:10;11.30;;;5.30;;
43744;SDS011;29359;53.048;8.732;2023-03-01T10:45:35;8.35;;;5.43;;
43744;SDS011;29359;53.048;8.732;2023-03-01T10:47:39;9.93;;;5.15;;
43744;SDS011;29359;53.048;8.732;2023-03-01T10:49:51;10.23;;;4.65;;
43744;SDS011;29359;53.048;8.732;2023-03-01T10:52:11;11.02;;;4.53;;
43744;SDS011;29359;53.048;8.732;2023-03-01T10:54:29;5.88;;;4.75;;
43744;SDS011;29359;53.048;8.732;2023-03-01T10:56:45;7.53;;;4.93;;
43744;SDS011;29359;53.048;8.732;2023-03-01T10:59:00;8.68;;;5.28;;
43744;SDS011;29359;53.048;8.732;2023-03-01T11:01:05;7.03;;;4.93;;
43744;SDS011;29359;53.048;8.732;2023-03-01T11:03:29;6.10;;;5.50;;
43744;SDS011;29359;53.048;8.732;2023-03-01T11:05:32;6.88;;;5.22;;
43744;SDS011;29359;53.048;8.732;2023-03-01T11:07:46;10.23;;;5.70;;
43744;SDS011;29359;53.048;8.732;2023-03-01T11:10:11;9.68;;;5.72;;
43744;SDS011;29359;53.048;8.732;2023-03-01T11:12:14;8.57;;;6.20;;
43744;SDS011;29359;53.048;8.732;2023-03-01T11:14:21;6.43;;;5.68;;
43744;SDS011;29359;53.048;8.732;2023-03-01T11:16:32;7.45;;;6.13;;
43744;SDS011;29359;53.048;8.732;2023-03-01T11:18:34;8.35;;;6.40;;
43744;SDS011;29359;53.048;8.732;2023-03-01T11:20:47;7.57;;;6.53;;
43744;SDS011;29359;53.048;8.732;2023-03-01T11:22:52;6.93;;;5.90;;
43744;SDS011;29359;53.048;8.732;2023-03-01T11:24:55;8.25;;;6.68;;
43744;SDS011;29359;53.048;8.732;2023-03-01T11:27:20;7.43;;;6.20;;
43744;SDS011;29359;53.048;8.732;2023-03-01T11:31:40;6.93;;;6.22;;
43744;SDS011;29359;53.048;8.732;2023-03-01T11:34:17;6.18;;;5.60;;
43744;SDS011;29359;53.048;8.732;2023-03-01T11:37:02;7.45;;;5.43;;
43744;SDS011;29359;53.048;8.732;2023-03-01T11:39:05;8.13;;;6.13;;
43744;SDS011;29359;53.048;8.732;2023-03-01T11:41:25;5.97;;;5.38;;
43744;SDS011;29359;53.048;8.732;2023-03-01T11:43:47;8.63;;;5.97;;
43744;SDS011;29359;53.048;8.732;2023-03-01T11:47:55;6.85;;;5.30;;
43744;SDS011;29359;53.048;8.732;2023-03-01T11:56:47;7.72;;;5.93;;
43744;SDS011;29359;53.048;8.732;2023-03-01T12:08:28;10.63;;;5.72;;
43744;SDS011;29359;53.048;8.732;2023-03-01T12:10:41;6.18;;;5.55;;
43744;SDS011;29359;53.048;8.732;2023-03-01T12:15:26;6.45;;;5.85;;
43744;SDS011;29359;53.048;8.732;2023-03-01T12:17:43;5.95;;;5.35;;
43744;SDS011;29359;53.048;8.732;2023-03-01T12:22:20;6.53;;;5.95;;
43744;SDS011;29359;53.048;8.732;2023-03-01T12:24:42;6.22;;;5.53;;
43744;SDS011;29359;53.048;8.732;2023-03-01T12:27:06;7.57;;;5.05;;
43744;SDS011;29359;53.048;8.732;2023-03-01T12:48:03;6.30;;;5.80;;
43744;SDS011;29359;53.048;8.732;2023-03-01T12:50:12;6.38;;;5.72;;
43744;SDS011;29359;53.048;8.732;2023-03-01T12:54:51;7.85;;;5.90;;
43744;SDS011;29359;53.048;8.732;2023-03-01T12:57:02;5.82;;;5.32;;
43744;SDS011;29359;53.048;8.732;2023-03-01T12:59:21;5.63;;;5.07;;
43744;SDS011;29359;53.048;8.732;2023-03-01T13:08:43;5.38;;;4.97;;
43744;SDS011;29359;53.048;8.732;2023-03-01T13:10:58;5.80;;;5.30;;
43744;SDS011;29359;53.048;8.732;2023-03-01T13:17:31;6.57;;;5.68;;
43744;SDS011;29359;53.048;8.732;2023-03-01T13:19:34;5.70;;;5.20;;
43744;SDS011;29359;53.048;8.732;2023-03-01T13:21:37;6.25;;;5.60;;
43744;SDS011;29359;53.048;8.732;2023-03-01T13:23:38;6.13;;;5.45;;
43744;SDS011;29359;53.048;8.732;2023-03-01T13:30:44;6.25;;;5.72;;
43744;SDS011;29359;53.048;8.732;2023-03-01T13:32:45;6.35;;;5.72;;
43744;SDS011;29359;53.048;8.732;2023-03-01T13:34:48;7.05;;;5.43;;
43744;SDS011;29359;53.048;8.732;2023-03-01T13:36:53;7.38;;;5.93;;
43744;SDS011;29359;53.048;8.732;2023-03-01T13:39:27;6.65;;;6.05;;
43744;SDS011;29359;53.048;8.732;2023-03-01T13:43:45;8.48;;;6.65;;
43744;SDS011;29359;53.048;8.732;2023-03-01T13:45:48;6.03;;;5.45;;
43744;SDS011;29359;53.048;8.732;2023-03-01T13:48:01;6.15;;;5.55;;